createdAt,value
2017-11-13T00:00:09.055Z,1001.5
2017-11-13T00:00:35.178Z,1001.47
2017-11-13T00:01:01.294Z,1001.52
2017-11-13T00:01:27.442Z,1001.51
2017-11-13T00:01:53.578Z,1001.49
2017-11-13T00:02:19.698Z,1001.49
2017-11-13T00:02:45.820Z,1001.46
2017-11-13T00:03:11.937Z,1001.45
2017-11-13T00:03:38.056Z,1001.5
2017-11-13T00:04:04.172Z,1001.49
2017-11-13T00:04:30.319Z,1001.53
2017-11-13T00:04:56.458Z,1001.56
2017-11-13T00:05:22.597Z,1001.55
2017-11-13T00:05:48.718Z,1001.51
2017-11-13T00:06:14.847Z,1001.56
2017-11-13T00:06:40.973Z,1001.51
2017-11-13T00:07:07.084Z,1001.54
2017-11-13T00:07:33.205Z,1001.58
2017-11-13T00:07:59.330Z,1001.59
2017-11-13T00:08:25.447Z,1001.6
2017-11-13T00:08:51.587Z,1001.62
2017-11-13T00:09:17.706Z,1001.64
2017-11-13T00:09:43.832Z,1001.65
2017-11-13T00:10:09.945Z,1001.63
2017-11-13T00:10:36.082Z,1001.64
2017-11-13T00:11:02.209Z,1001.62
2017-11-13T00:11:28.335Z,1001.61
2017-11-13T00:11:54.450Z,1001.63
2017-11-13T00:12:20.570Z,1001.67
2017-11-13T00:12:46.686Z,1001.65
2017-11-13T00:13:12.810Z,1001.62
2017-11-13T00:13:38.933Z,1001.68
2017-11-13T00:14:05.050Z,1001.66
2017-11-13T00:14:31.169Z,1001.66
2017-11-13T00:14:57.289Z,1001.64
2017-11-13T00:15:23.406Z,1001.61
2017-11-13T00:15:49.528Z,1001.64
2017-11-13T00:16:15.654Z,1001.6
2017-11-13T00:16:41.779Z,1001.62
2017-11-13T00:17:07.896Z,1001.6
2017-11-13T00:17:34.017Z,1001.63
2017-11-13T00:18:00.130Z,1001.66
2017-11-13T00:18:26.254Z,1001.66
2017-11-13T00:18:52.377Z,1001.65
2017-11-13T00:19:18.521Z,1001.67
2017-11-13T00:19:44.639Z,1001.63
2017-11-13T00:20:10.761Z,1001.65
2017-11-13T00:20:36.881Z,1001.71
2017-11-13T00:21:03.002Z,1001.67
2017-11-13T00:21:29.123Z,1001.7
2017-11-13T00:21:55.242Z,1001.69
2017-11-13T00:22:21.360Z,1001.74
2017-11-13T00:22:47.480Z,1001.74
2017-11-13T00:23:13.611Z,1001.75
2017-11-13T00:23:39.723Z,1001.75
2017-11-13T00:24:05.851Z,1001.76
2017-11-13T00:24:31.993Z,1001.76
2017-11-13T00:24:58.109Z,1001.78
2017-11-13T00:25:24.232Z,1001.79
2017-11-13T00:25:50.370Z,1001.81
2017-11-13T00:26:16.489Z,1001.83
2017-11-13T00:26:42.614Z,1001.83
2017-11-13T00:27:08.728Z,1001.81
2017-11-13T00:27:34.852Z,1001.84
2017-11-13T00:28:00.965Z,1001.86
2017-11-13T00:28:27.112Z,1001.88
2017-11-13T00:28:53.234Z,1001.87
2017-11-13T00:29:19.356Z,1001.92
2017-11-13T00:29:45.482Z,1001.92
2017-11-13T00:30:11.596Z,1001.94
2017-11-13T00:30:37.722Z,1001.95
2017-11-13T00:31:03.848Z,1002
2017-11-13T00:31:29.986Z,1001.96
2017-11-13T00:31:56.106Z,1001.98
2017-11-13T00:32:22.218Z,1002
2017-11-13T00:32:48.343Z,1001.97
2017-11-13T00:33:14.460Z,1002.02
2017-11-13T00:33:40.582Z,1001.98
2017-11-13T00:34:06.703Z,1002.02
2017-11-13T00:34:32.839Z,1002.02
2017-11-13T00:34:58.961Z,1002.02
2017-11-13T00:35:25.076Z,1001.97
2017-11-13T00:35:51.202Z,1002.02
2017-11-13T00:36:17.324Z,1002
2017-11-13T00:36:43.441Z,1001.97
2017-11-13T00:37:09.563Z,1002.01
2017-11-13T00:37:35.698Z,1002.04
2017-11-13T00:38:01.805Z,1002
2017-11-13T00:38:27.925Z,1002.02
2017-11-13T00:38:54.040Z,1002.04
2017-11-13T00:39:20.170Z,1002
2017-11-13T00:39:46.280Z,1002.02
2017-11-13T00:40:12.400Z,1002.07
2017-11-13T00:40:38.522Z,1002.03
2017-11-13T00:41:04.637Z,1002.12
2017-11-13T00:41:30.757Z,1002.03
2017-11-13T00:41:56.876Z,1002.11
2017-11-13T00:42:23.001Z,1002.09
2017-11-13T00:42:49.118Z,1002.08
2017-11-13T00:43:15.244Z,1002.1
2017-11-13T00:43:41.363Z,1002.06
2017-11-13T00:44:07.485Z,1002.15
2017-11-13T00:44:33.604Z,1002.13
2017-11-13T00:44:59.723Z,1002.11
2017-11-13T00:45:25.870Z,1002.11
2017-11-13T00:45:52.008Z,1002.09
2017-11-13T00:46:18.127Z,1002.1
2017-11-13T00:46:44.251Z,1002.13
2017-11-13T00:47:10.368Z,1002.09
2017-11-13T00:47:36.512Z,1002.06
2017-11-13T00:48:02.633Z,1002.09
2017-11-13T00:48:28.748Z,1002.13
2017-11-13T00:48:54.873Z,1002.12
2017-11-13T00:49:20.989Z,1002.17
2017-11-13T00:49:47.112Z,1002.18
2017-11-13T00:50:13.232Z,1002.18
2017-11-13T00:50:39.351Z,1002.2
2017-11-13T00:51:05.477Z,1002.19
2017-11-13T00:51:31.599Z,1002.17
2017-11-13T00:51:57.719Z,1002.22
2017-11-13T00:52:23.853Z,1002.23
2017-11-13T00:52:49.973Z,1002.23
2017-11-13T00:53:16.093Z,1002.21
2017-11-13T00:53:42.216Z,1002.18
2017-11-13T00:54:08.327Z,1002.2
2017-11-13T00:54:34.466Z,1002.21
2017-11-13T00:55:00.589Z,1002.21
2017-11-13T00:55:26.710Z,1002.2
2017-11-13T00:55:52.823Z,1002.2
2017-11-13T00:56:18.950Z,1002.18
2017-11-13T00:56:45.064Z,1002.19
2017-11-13T00:57:11.186Z,1002.2
2017-11-13T00:57:37.310Z,1002.24
2017-11-13T00:58:03.440Z,1002.22
2017-11-13T00:58:29.557Z,1002.23
2017-11-13T00:58:55.679Z,1002.21
2017-11-13T00:59:21.819Z,1002.24
2017-11-13T00:59:47.943Z,1002.21
2017-11-13T01:00:14.065Z,1002.24
2017-11-13T01:00:40.180Z,1002.26
2017-11-13T01:01:06.299Z,1002.27
2017-11-13T01:01:32.425Z,1002.25
2017-11-13T01:01:58.549Z,1002.24
2017-11-13T01:02:24.659Z,1002.26
2017-11-13T01:02:50.784Z,1002.25
2017-11-13T01:03:16.901Z,1002.26
2017-11-13T01:03:43.043Z,1002.26
2017-11-13T01:04:09.160Z,1002.24
2017-11-13T01:04:35.308Z,1002.27
2017-11-13T01:05:01.424Z,1002.25
2017-11-13T01:05:27.549Z,1002.29
2017-11-13T01:05:53.669Z,1002.23
2017-11-13T01:06:19.784Z,1002.3
2017-11-13T01:06:45.908Z,1002.25
2017-11-13T01:07:12.036Z,1002.29
2017-11-13T01:07:38.167Z,1002.27
2017-11-13T01:08:04.291Z,1002.27
2017-11-13T01:08:30.408Z,1002.29
2017-11-13T01:08:56.528Z,1002.27
2017-11-13T01:09:22.674Z,1002.32
2017-11-13T01:09:48.797Z,1002.26
2017-11-13T01:10:14.912Z,1002.3
2017-11-13T01:10:41.030Z,1002.34
2017-11-13T01:11:07.155Z,1002.35
2017-11-13T01:11:33.271Z,1002.33
2017-11-13T01:11:59.396Z,1002.35
2017-11-13T01:12:25.511Z,1002.37
2017-11-13T01:12:51.636Z,1002.37
2017-11-13T01:13:17.751Z,1002.4
2017-11-13T01:13:43.887Z,1002.4
2017-11-13T01:14:09.999Z,1002.41
2017-11-13T01:14:36.117Z,1002.38
2017-11-13T01:15:02.233Z,1002.38
2017-11-13T01:15:28.357Z,1002.42
2017-11-13T01:15:54.478Z,1002.41
2017-11-13T01:16:20.618Z,1002.43
2017-11-13T01:16:46.761Z,1002.41
2017-11-13T01:17:12.876Z,1002.42
2017-11-13T01:17:39.016Z,1002.46
2017-11-13T01:18:05.139Z,1002.45
2017-11-13T01:18:31.253Z,1002.49
2017-11-13T01:18:57.378Z,1002.44
2017-11-13T01:19:23.500Z,1002.44
2017-11-13T01:19:49.629Z,1002.47
2017-11-13T01:20:15.735Z,1002.48
2017-11-13T01:20:41.862Z,1002.46
2017-11-13T01:21:07.981Z,1002.5
2017-11-13T01:21:34.095Z,1002.5
2017-11-13T01:22:00.221Z,1002.49
2017-11-13T01:22:26.341Z,1002.48
2017-11-13T01:22:52.457Z,1002.5
2017-11-13T01:23:18.581Z,1002.53
2017-11-13T01:23:44.694Z,1002.51
2017-11-13T01:24:10.818Z,1002.53
2017-11-13T01:24:36.954Z,1002.6
2017-11-13T01:25:03.079Z,1002.58
2017-11-13T01:25:29.209Z,1002.58
2017-11-13T01:25:55.317Z,1002.62
2017-11-13T01:26:21.436Z,1002.63
2017-11-13T01:26:47.563Z,1002.66
2017-11-13T01:27:13.685Z,1002.61
2017-11-13T01:27:39.818Z,1002.64
2017-11-13T01:28:05.945Z,1002.65
2017-11-13T01:28:32.064Z,1002.6
2017-11-13T01:28:58.185Z,1002.62
2017-11-13T01:29:24.322Z,1002.64
2017-11-13T01:29:50.441Z,1002.63
2017-11-13T01:30:16.563Z,1002.63
2017-11-13T01:30:42.703Z,1002.63
2017-11-13T01:31:08.823Z,1002.63
2017-11-13T01:31:34.942Z,1002.65
2017-11-13T01:32:01.067Z,1002.63
2017-11-13T01:32:27.185Z,1002.66
2017-11-13T01:32:53.310Z,1002.59
2017-11-13T01:33:19.437Z,1002.63
2017-11-13T01:33:45.549Z,1002.61
2017-11-13T01:34:11.662Z,1002.61
2017-11-13T01:34:37.787Z,1002.62
2017-11-13T01:35:03.910Z,1002.62
2017-11-13T01:35:30.026Z,1002.64
2017-11-13T01:35:56.154Z,1002.62
2017-11-13T01:36:22.285Z,1002.63
2017-11-13T01:36:48.402Z,1002.65
2017-11-13T01:37:14.526Z,1002.64
2017-11-13T01:37:40.640Z,1002.65
2017-11-13T01:38:06.767Z,1002.69
2017-11-13T01:38:32.889Z,1002.65
2017-11-13T01:38:59.007Z,1002.65
2017-11-13T01:39:25.130Z,1002.61
2017-11-13T01:39:51.249Z,1002.61
2017-11-13T01:40:17.370Z,1002.65
2017-11-13T01:40:43.493Z,1002.6
2017-11-13T01:41:09.610Z,1002.62
2017-11-13T01:41:35.727Z,1002.64
2017-11-13T01:42:01.846Z,1002.64
2017-11-13T01:42:28.007Z,1002.67
2017-11-13T01:42:54.145Z,1002.65
2017-11-13T01:43:20.270Z,1002.62
2017-11-13T01:43:46.386Z,1002.61
2017-11-13T01:44:12.507Z,1002.63
2017-11-13T01:44:38.629Z,1002.58
2017-11-13T01:45:04.754Z,1002.55
2017-11-13T01:45:30.866Z,1002.58
2017-11-13T01:45:56.991Z,1002.65
2017-11-13T01:46:23.112Z,1002.64
2017-11-13T01:46:49.234Z,1002.59
2017-11-13T01:47:15.359Z,1002.64
2017-11-13T01:47:41.473Z,1002.62
2017-11-13T01:48:07.586Z,1002.59
2017-11-13T01:48:33.711Z,1002.62
2017-11-13T01:48:59.835Z,1002.61
2017-11-13T01:49:25.948Z,1002.61
2017-11-13T01:49:52.081Z,1002.63
2017-11-13T01:50:18.208Z,1002.62
2017-11-13T01:50:44.353Z,1002.62
2017-11-13T01:51:10.501Z,1002.59
2017-11-13T01:51:36.615Z,1002.61
2017-11-13T01:52:02.735Z,1002.59
2017-11-13T01:52:29.076Z,1002.6
2017-11-13T01:52:55.190Z,1002.58
2017-11-13T01:53:21.334Z,1002.62
2017-11-13T01:53:47.464Z,1002.65
2017-11-13T01:54:13.579Z,1002.65
2017-11-13T01:54:39.697Z,1002.65
2017-11-13T01:55:05.818Z,1002.65
2017-11-13T01:55:31.935Z,1002.65
2017-11-13T01:55:58.064Z,1002.64
2017-11-13T01:56:24.174Z,1002.64
2017-11-13T01:56:50.292Z,1002.65
2017-11-13T01:57:16.421Z,1002.66
2017-11-13T01:57:42.556Z,1002.68
2017-11-13T01:58:08.685Z,1002.68
2017-11-13T01:58:34.818Z,1002.68
2017-11-13T01:59:00.942Z,1002.68
2017-11-13T01:59:27.084Z,1002.7
2017-11-13T01:59:53.201Z,1002.66
2017-11-13T02:00:19.323Z,1002.66
2017-11-13T02:00:45.440Z,1002.66
2017-11-13T02:01:11.586Z,1002.63
2017-11-13T02:01:37.701Z,1002.66
2017-11-13T02:02:03.818Z,1002.65
2017-11-13T02:02:29.984Z,1002.68
2017-11-13T02:02:56.101Z,1002.66
2017-11-13T02:03:22.225Z,1002.67
2017-11-13T02:03:48.346Z,1002.66
2017-11-13T02:04:14.485Z,1002.65
2017-11-13T02:04:40.625Z,1002.71
2017-11-13T02:05:06.747Z,1002.7
2017-11-13T02:05:32.880Z,1002.63
2017-11-13T02:05:59.006Z,1002.7
2017-11-13T02:06:25.144Z,1002.69
2017-11-13T02:06:51.293Z,1002.7
2017-11-13T02:07:17.414Z,1002.71
2017-11-13T02:07:43.535Z,1002.74
2017-11-13T02:08:09.641Z,1002.7
2017-11-13T02:08:35.784Z,1002.73
2017-11-13T02:09:01.905Z,1002.74
2017-11-13T02:09:28.023Z,1002.76
2017-11-13T02:09:54.140Z,1002.79
2017-11-13T02:10:20.264Z,1002.76
2017-11-13T02:10:46.383Z,1002.74
2017-11-13T02:11:12.502Z,1002.77
2017-11-13T02:11:38.621Z,1002.82
2017-11-13T02:12:04.754Z,1002.78
2017-11-13T02:12:30.875Z,1002.79
2017-11-13T02:12:56.992Z,1002.81
2017-11-13T02:13:23.112Z,1002.81
2017-11-13T02:13:49.238Z,1002.77
2017-11-13T02:14:15.375Z,1002.79
2017-11-13T02:14:41.504Z,1002.81
2017-11-13T02:15:07.634Z,1002.79
2017-11-13T02:15:33.741Z,1002.82
2017-11-13T02:15:59.861Z,1002.8
2017-11-13T02:16:25.986Z,1002.78
2017-11-13T02:16:52.103Z,1002.82
2017-11-13T02:17:18.227Z,1002.82
2017-11-13T02:17:44.341Z,1002.82
2017-11-13T02:18:10.457Z,1002.84
2017-11-13T02:18:36.582Z,1002.82
2017-11-13T02:19:02.697Z,1002.83
2017-11-13T02:19:28.817Z,1002.81
2017-11-13T02:19:54.941Z,1002.78
2017-11-13T02:20:21.081Z,1002.78
2017-11-13T02:20:47.206Z,1002.78
2017-11-13T02:21:13.330Z,1002.76
2017-11-13T02:21:39.449Z,1002.76
2017-11-13T02:22:05.575Z,1002.74
2017-11-13T02:22:31.685Z,1002.74
2017-11-13T02:22:57.807Z,1002.66
2017-11-13T02:23:23.924Z,1002.72
2017-11-13T02:23:50.055Z,1002.69
2017-11-13T02:24:16.160Z,1002.69
2017-11-13T02:24:42.277Z,1002.7
2017-11-13T02:25:08.404Z,1002.7
2017-11-13T02:25:34.524Z,1002.69
2017-11-13T02:26:00.660Z,1002.73
2017-11-13T02:26:26.785Z,1002.75
2017-11-13T02:26:52.901Z,1002.75
2017-11-13T02:27:19.023Z,1002.79
2017-11-13T02:27:45.170Z,1002.76
2017-11-13T02:28:11.285Z,1002.77
2017-11-13T02:28:37.413Z,1002.73
2017-11-13T02:29:03.558Z,1002.73
2017-11-13T02:29:29.671Z,1002.78
2017-11-13T02:29:55.801Z,1002.83
2017-11-13T02:30:21.922Z,1002.8
2017-11-13T02:30:48.055Z,1002.79
2017-11-13T02:31:14.180Z,1002.87
2017-11-13T02:31:40.292Z,1002.82
2017-11-13T02:32:06.431Z,1002.88
2017-11-13T02:32:32.560Z,1002.88
2017-11-13T02:32:58.674Z,1002.88
2017-11-13T02:33:24.791Z,1002.95
2017-11-13T02:33:50.915Z,1002.95
2017-11-13T02:34:17.037Z,1003
2017-11-13T02:34:43.159Z,1003
2017-11-13T02:35:09.298Z,1003.07
2017-11-13T02:35:35.412Z,1003.12
2017-11-13T02:36:01.532Z,1003.16
2017-11-13T02:36:27.678Z,1003.14
2017-11-13T02:36:53.819Z,1003.09
2017-11-13T02:37:19.949Z,1003.08
2017-11-13T02:37:46.065Z,1003.11
2017-11-13T02:38:12.179Z,1003.12
2017-11-13T02:38:38.303Z,1003.15
2017-11-13T02:39:04.439Z,1003.14
2017-11-13T02:39:30.554Z,1003.15
2017-11-13T02:39:56.680Z,1003.16
2017-11-13T02:40:22.804Z,1003.18
2017-11-13T02:40:48.919Z,1003.21
2017-11-13T02:41:15.045Z,1003.22
2017-11-13T02:41:41.167Z,1003.25
2017-11-13T02:42:07.304Z,1003.28
2017-11-13T02:42:33.443Z,1003.27
2017-11-13T02:42:59.555Z,1003.28
2017-11-13T02:43:25.681Z,1003.26
2017-11-13T02:43:51.813Z,1003.27
2017-11-13T02:44:17.920Z,1003.26
2017-11-13T02:44:44.046Z,1003.3
2017-11-13T02:45:10.162Z,1003.22
2017-11-13T02:45:36.282Z,1003.21
2017-11-13T02:46:02.401Z,1003.26
2017-11-13T02:46:28.524Z,1003.23
2017-11-13T02:46:54.639Z,1003.23
2017-11-13T02:47:20.766Z,1003.25
2017-11-13T02:47:46.883Z,1003.25
2017-11-13T02:48:13.000Z,1003.23
2017-11-13T02:48:39.146Z,1003.22
2017-11-13T02:49:05.259Z,1003.21
2017-11-13T02:49:31.382Z,1003.18
2017-11-13T02:49:57.509Z,1003.18
2017-11-13T02:50:23.646Z,1003.23
2017-11-13T02:50:49.764Z,1003.24
2017-11-13T02:51:15.904Z,1003.24
2017-11-13T02:51:42.025Z,1003.25
2017-11-13T02:52:08.159Z,1003.25
2017-11-13T02:52:34.282Z,1003.23
2017-11-13T02:53:00.402Z,1003.26
2017-11-13T02:53:26.542Z,1003.31
2017-11-13T02:53:52.653Z,1003.3
2017-11-13T02:54:18.775Z,1003.35
2017-11-13T02:54:44.890Z,1003.34
2017-11-13T02:55:11.016Z,1003.32
2017-11-13T02:55:37.144Z,1003.34
2017-11-13T02:56:03.258Z,1003.35
2017-11-13T02:56:29.386Z,1003.37
2017-11-13T02:56:55.501Z,1003.34
2017-11-13T02:57:21.619Z,1003.35
2017-11-13T02:57:47.744Z,1003.37
2017-11-13T02:58:13.888Z,1003.39
2017-11-13T02:58:40.002Z,1003.37
2017-11-13T02:59:06.141Z,1003.37
2017-11-13T02:59:32.240Z,1003.35
2017-11-13T02:59:58.361Z,1003.36
2017-11-13T03:00:24.481Z,1003.37
2017-11-13T03:00:50.607Z,1003.38
2017-11-13T03:01:16.730Z,1003.43
2017-11-13T03:01:42.845Z,1003.43
2017-11-13T03:02:08.974Z,1003.43
2017-11-13T03:02:35.088Z,1003.46
2017-11-13T03:03:01.202Z,1003.44
2017-11-13T03:03:27.324Z,1003.47
2017-11-13T03:03:53.449Z,1003.47
2017-11-13T03:04:19.569Z,1003.47
2017-11-13T03:04:45.684Z,1003.43
2017-11-13T03:05:11.808Z,1003.43
2017-11-13T03:05:37.933Z,1003.47
2017-11-13T03:06:04.046Z,1003.45
2017-11-13T03:06:30.164Z,1003.48
2017-11-13T03:06:56.287Z,1003.49
2017-11-13T03:07:22.437Z,1003.54
2017-11-13T03:07:48.553Z,1003.55
2017-11-13T03:08:14.668Z,1003.55
2017-11-13T03:08:40.792Z,1003.56
2017-11-13T03:09:06.916Z,1003.57
2017-11-13T03:09:33.026Z,1003.58
2017-11-13T03:09:59.152Z,1003.57
2017-11-13T03:10:25.272Z,1003.58
2017-11-13T03:10:51.395Z,1003.59
2017-11-13T03:11:17.530Z,1003.58
2017-11-13T03:11:43.653Z,1003.6
2017-11-13T03:12:09.781Z,1003.62
2017-11-13T03:12:35.897Z,1003.61
2017-11-13T03:13:02.032Z,1003.68
2017-11-13T03:13:28.151Z,1003.68
2017-11-13T03:13:54.274Z,1003.67
2017-11-13T03:14:20.390Z,1003.68
2017-11-13T03:14:46.519Z,1003.67
2017-11-13T03:15:12.645Z,1003.67
2017-11-13T03:15:38.802Z,1003.68
2017-11-13T03:16:04.924Z,1003.67
2017-11-13T03:16:31.049Z,1003.69
2017-11-13T03:16:57.163Z,1003.71
2017-11-13T03:17:23.292Z,1003.7
2017-11-13T03:17:49.422Z,1003.66
2017-11-13T03:18:15.546Z,1003.72
2017-11-13T03:18:41.661Z,1003.72
2017-11-13T03:19:07.776Z,1003.75
2017-11-13T03:19:33.905Z,1003.74
2017-11-13T03:20:00.028Z,1003.75
2017-11-13T03:20:26.147Z,1003.75
2017-11-13T03:20:52.265Z,1003.75
2017-11-13T03:21:18.400Z,1003.76
2017-11-13T03:21:44.528Z,1003.79
2017-11-13T03:22:10.658Z,1003.82
2017-11-13T03:22:36.802Z,1003.82
2017-11-13T03:23:02.927Z,1003.79
2017-11-13T03:23:29.039Z,1003.81
2017-11-13T03:23:55.159Z,1003.84
2017-11-13T03:24:21.277Z,1003.83
2017-11-13T03:24:47.393Z,1003.86
2017-11-13T03:25:13.516Z,1003.84
2017-11-13T03:25:39.635Z,1003.87
2017-11-13T03:26:05.758Z,1003.86
2017-11-13T03:26:31.880Z,1003.89
2017-11-13T03:26:57.995Z,1003.95
2017-11-13T03:27:24.113Z,1003.94
2017-11-13T03:27:50.235Z,1003.93
2017-11-13T03:28:16.349Z,1003.94
2017-11-13T03:28:42.492Z,1003.97
2017-11-13T03:29:08.616Z,1003.94
2017-11-13T03:29:34.733Z,1003.96
2017-11-13T03:30:00.881Z,1003.96
2017-11-13T03:30:27.014Z,1003.98
2017-11-13T03:30:53.134Z,1004
2017-11-13T03:31:19.280Z,1004
2017-11-13T03:31:45.372Z,1003.98
2017-11-13T03:32:11.516Z,1004.06
2017-11-13T03:32:37.634Z,1004.04
2017-11-13T03:33:03.757Z,1004.06
2017-11-13T03:33:29.871Z,1004.05
2017-11-13T03:33:55.996Z,1004.09
2017-11-13T03:34:22.114Z,1004.04
2017-11-13T03:34:48.254Z,1004.09
2017-11-13T03:35:14.380Z,1004.09
2017-11-13T03:35:40.496Z,1004.07
2017-11-13T03:36:06.613Z,1004.08
2017-11-13T03:36:32.742Z,1004.1
2017-11-13T03:36:58.876Z,1004.11
2017-11-13T03:37:24.973Z,1004.07
2017-11-13T03:37:51.120Z,1004.09
2017-11-13T03:38:17.238Z,1004.08
2017-11-13T03:38:43.363Z,1004.09
2017-11-13T03:39:09.480Z,1004.14
2017-11-13T03:39:35.590Z,1004.09
2017-11-13T03:40:01.737Z,1004.12
2017-11-13T03:40:27.876Z,1004.15
2017-11-13T03:40:54.028Z,1004.11
2017-11-13T03:41:20.141Z,1004.14
2017-11-13T03:41:46.268Z,1004.14
2017-11-13T03:42:12.385Z,1004.13
2017-11-13T03:42:38.505Z,1004.2
2017-11-13T03:43:04.630Z,1004.16
2017-11-13T03:43:30.755Z,1004.15
2017-11-13T03:43:56.871Z,1004.18
2017-11-13T03:44:22.988Z,1004.14
2017-11-13T03:44:49.106Z,1004.17
2017-11-13T03:45:15.246Z,1004.16
2017-11-13T03:45:41.371Z,1004.14
2017-11-13T03:46:07.494Z,1004.16
2017-11-13T03:46:33.614Z,1004.16
2017-11-13T03:46:59.739Z,1004.17
2017-11-13T03:47:25.891Z,1004.21
2017-11-13T03:47:52.000Z,1004.18
2017-11-13T03:48:18.120Z,1004.18
2017-11-13T03:48:44.244Z,1004.16
2017-11-13T03:49:10.369Z,1004.21
2017-11-13T03:49:36.482Z,1004.23
2017-11-13T03:50:02.601Z,1004.16
2017-11-13T03:50:28.726Z,1004.18
2017-11-13T03:50:54.841Z,1004.22
2017-11-13T03:51:20.972Z,1004.2
2017-11-13T03:51:47.086Z,1004.21
2017-11-13T03:52:13.219Z,1004.22
2017-11-13T03:52:39.351Z,1004.21
2017-11-13T03:53:05.469Z,1004.21
2017-11-13T03:53:31.590Z,1004.2
2017-11-13T03:53:57.706Z,1004.25
2017-11-13T03:54:23.830Z,1004.27
2017-11-13T03:54:49.948Z,1004.32
2017-11-13T03:55:16.099Z,1004.31
2017-11-13T03:55:42.214Z,1004.32
2017-11-13T03:56:08.338Z,1004.27
2017-11-13T03:56:34.454Z,1004.34
2017-11-13T03:57:00.585Z,1004.34
2017-11-13T03:57:26.696Z,1004.3
2017-11-13T03:57:52.811Z,1004.38
2017-11-13T03:58:18.937Z,1004.4
2017-11-13T03:58:45.074Z,1004.35
2017-11-13T03:59:11.198Z,1004.39
2017-11-13T03:59:37.320Z,1004.37
2017-11-13T04:00:03.441Z,1004.4
2017-11-13T04:00:29.565Z,1004.33
2017-11-13T04:00:55.689Z,1004.43
2017-11-13T04:01:21.807Z,1004.38
2017-11-13T04:01:47.923Z,1004.42
2017-11-13T04:02:14.048Z,1004.39
2017-11-13T04:02:40.194Z,1004.4
2017-11-13T04:03:06.309Z,1004.44
2017-11-13T04:03:32.428Z,1004.46
2017-11-13T04:03:58.548Z,1004.43
2017-11-13T04:04:24.668Z,1004.46
2017-11-13T04:04:50.783Z,1004.43
2017-11-13T04:05:16.929Z,1004.42
2017-11-13T04:05:43.047Z,1004.42
2017-11-13T04:06:09.176Z,1004.45
2017-11-13T04:06:35.298Z,1004.41
2017-11-13T04:07:01.414Z,1004.42
2017-11-13T04:07:27.534Z,1004.47
2017-11-13T04:07:53.665Z,1004.47
2017-11-13T04:08:19.786Z,1004.49
2017-11-13T04:08:45.901Z,1004.44
2017-11-13T04:09:12.041Z,1004.47
2017-11-13T04:09:38.154Z,1004.43
2017-11-13T04:10:04.274Z,1004.48
2017-11-13T04:10:30.399Z,1004.51
2017-11-13T04:10:56.511Z,1004.46
2017-11-13T04:11:22.643Z,1004.49
2017-11-13T04:11:48.765Z,1004.52
2017-11-13T04:12:14.883Z,1004.52
2017-11-13T04:12:41.015Z,1004.54
2017-11-13T04:13:07.150Z,1004.55
2017-11-13T04:13:33.273Z,1004.55
2017-11-13T04:13:59.389Z,1004.54
2017-11-13T04:14:25.517Z,1004.58
2017-11-13T04:14:51.629Z,1004.58
2017-11-13T04:15:17.747Z,1004.59
2017-11-13T04:15:43.863Z,1004.6
2017-11-13T04:16:09.981Z,1004.59
2017-11-13T04:16:36.124Z,1004.62
2017-11-13T04:17:02.244Z,1004.59
2017-11-13T04:17:28.410Z,1004.68
2017-11-13T04:17:54.511Z,1004.61
2017-11-13T04:18:20.630Z,1004.6
2017-11-13T04:18:46.771Z,1004.65
2017-11-13T04:19:12.880Z,1004.66
2017-11-13T04:19:39.002Z,1004.68
2017-11-13T04:20:05.120Z,1004.71
2017-11-13T04:20:31.236Z,1004.74
2017-11-13T04:20:57.353Z,1004.71
2017-11-13T04:21:23.482Z,1004.77
2017-11-13T04:21:49.595Z,1004.79
2017-11-13T04:22:15.710Z,1004.81
2017-11-13T04:22:41.836Z,1004.82
2017-11-13T04:23:07.955Z,1004.82
2017-11-13T04:23:34.077Z,1004.82
2017-11-13T04:24:00.198Z,1004.85
2017-11-13T04:24:26.320Z,1004.83
2017-11-13T04:24:52.443Z,1004.88
2017-11-13T04:25:18.558Z,1004.85
2017-11-13T04:25:44.679Z,1004.88
2017-11-13T04:26:10.805Z,1004.87
2017-11-13T04:26:36.929Z,1004.85
2017-11-13T04:27:03.044Z,1004.84
2017-11-13T04:27:29.169Z,1004.85
2017-11-13T04:27:55.284Z,1004.79
2017-11-13T04:28:21.431Z,1004.83
2017-11-13T04:28:47.555Z,1004.87
2017-11-13T04:29:13.667Z,1004.92
2017-11-13T04:29:39.793Z,1004.91
2017-11-13T04:30:05.932Z,1004.88
2017-11-13T04:30:32.056Z,1004.87
2017-11-13T04:30:58.177Z,1004.93
2017-11-13T04:31:24.298Z,1004.93
2017-11-13T04:31:50.421Z,1004.88
2017-11-13T04:32:16.537Z,1004.93
2017-11-13T04:32:42.660Z,1004.93
2017-11-13T04:33:08.775Z,1004.96
2017-11-13T04:33:34.896Z,1004.94
2017-11-13T04:34:01.018Z,1004.97
2017-11-13T04:34:27.138Z,1004.96
2017-11-13T04:34:53.266Z,1005.01
2017-11-13T04:35:19.381Z,1005.01
2017-11-13T04:35:45.501Z,1004.98
2017-11-13T04:36:11.619Z,1005.05
2017-11-13T04:36:37.751Z,1005.06
2017-11-13T04:37:03.877Z,1005.05
2017-11-13T04:37:29.997Z,1005.08
2017-11-13T04:37:56.120Z,1005.12
2017-11-13T04:38:22.241Z,1005.15
2017-11-13T04:38:48.371Z,1005.12
2017-11-13T04:39:14.484Z,1005.09
2017-11-13T04:39:40.599Z,1005.13
2017-11-13T04:40:06.730Z,1005.1
2017-11-13T04:40:32.841Z,1005.09
2017-11-13T04:40:58.962Z,1005.1
2017-11-13T04:41:25.074Z,1005.08
2017-11-13T04:41:51.232Z,1005.1
2017-11-13T04:42:17.328Z,1005.07
2017-11-13T04:42:43.445Z,1005.14
2017-11-13T04:43:09.564Z,1005.15
2017-11-13T04:43:35.687Z,1005.13
2017-11-13T04:44:01.803Z,1005.16
2017-11-13T04:44:27.953Z,1005.18
2017-11-13T04:44:54.074Z,1005.24
2017-11-13T04:45:20.193Z,1005.22
2017-11-13T04:45:46.318Z,1005.24
2017-11-13T04:46:12.456Z,1005.22
2017-11-13T04:46:38.598Z,1005.23
2017-11-13T04:47:04.714Z,1005.24
2017-11-13T04:47:30.844Z,1005.23
2017-11-13T04:47:56.958Z,1005.24
2017-11-13T04:48:23.074Z,1005.24
2017-11-13T04:48:49.199Z,1005.24
2017-11-13T04:49:15.315Z,1005.25
2017-11-13T04:49:41.443Z,1005.23
2017-11-13T04:50:07.559Z,1005.21
2017-11-13T04:50:33.703Z,1005.18
2017-11-13T04:50:59.825Z,1005.22
2017-11-13T04:51:25.941Z,1005.19
2017-11-13T04:51:52.064Z,1005.19
2017-11-13T04:52:18.205Z,1005.21
2017-11-13T04:52:44.323Z,1005.2
2017-11-13T04:53:10.450Z,1005.13
2017-11-13T04:53:36.562Z,1005.16
2017-11-13T04:54:02.689Z,1005.15
2017-11-13T04:54:28.812Z,1005.17
2017-11-13T04:54:54.944Z,1005.21
2017-11-13T04:55:21.061Z,1005.17
2017-11-13T04:55:47.184Z,1005.18
2017-11-13T04:56:13.307Z,1005.17
2017-11-13T04:56:39.423Z,1005.17
2017-11-13T04:57:05.544Z,1005.22
2017-11-13T04:57:31.659Z,1005.22
2017-11-13T04:57:57.802Z,1005.2
2017-11-13T04:58:23.923Z,1005.22
2017-11-13T04:58:50.071Z,1005.23
2017-11-13T04:59:16.178Z,1005.25
2017-11-13T04:59:42.318Z,1005.22
2017-11-13T05:00:08.452Z,1005.23
2017-11-13T05:00:34.566Z,1005.21
2017-11-13T05:01:00.684Z,1005.26
2017-11-13T05:01:26.803Z,1005.21
2017-11-13T05:01:52.976Z,1005.23
2017-11-13T05:02:19.099Z,1005.2
2017-11-13T05:02:45.215Z,1005.24
2017-11-13T05:03:11.334Z,1005.28
2017-11-13T05:03:37.459Z,1005.27
2017-11-13T05:04:03.604Z,1005.27
2017-11-13T05:04:29.719Z,1005.29
2017-11-13T05:04:55.846Z,1005.27
2017-11-13T05:05:21.959Z,1005.31
2017-11-13T05:05:48.079Z,1005.34
2017-11-13T05:06:14.227Z,1005.31
2017-11-13T05:06:40.369Z,1005.3
2017-11-13T05:07:06.488Z,1005.34
2017-11-13T05:07:32.606Z,1005.35
2017-11-13T05:07:58.728Z,1005.34
2017-11-13T05:08:24.844Z,1005.36
2017-11-13T05:08:50.965Z,1005.36
2017-11-13T05:09:17.083Z,1005.37
2017-11-13T05:09:43.205Z,1005.42
2017-11-13T05:10:09.329Z,1005.41
2017-11-13T05:10:35.445Z,1005.41
2017-11-13T05:11:01.563Z,1005.39
2017-11-13T05:11:27.687Z,1005.44
2017-11-13T05:11:53.810Z,1005.45
2017-11-13T05:12:19.949Z,1005.44
2017-11-13T05:12:46.074Z,1005.45
2017-11-13T05:13:12.192Z,1005.45
2017-11-13T05:13:38.306Z,1005.5
2017-11-13T05:14:04.432Z,1005.44
2017-11-13T05:14:30.552Z,1005.47
2017-11-13T05:14:56.686Z,1005.46
2017-11-13T05:15:22.786Z,1005.47
2017-11-13T05:15:48.909Z,1005.46
2017-11-13T05:16:15.034Z,1005.47
2017-11-13T05:16:41.155Z,1005.49
2017-11-13T05:17:07.269Z,1005.51